Time;durP1;ratioP1;P1;durP2;ratioP2;P2;SDS_P1;SDS_P2;PMS_P1;PMS_P2;Temp;Humidity;BMP_temperature;BMP_pressure;BME280_temperature;BME280_humidity;BME280_pressure;Samples;Min_cycle;Max_cycle;Signal;HPM_P1;HPM_P2
2021/07/27 00:01:20;;;;;;;9.55;5.53;;;;;;;20.50;63.18;100456.38;1718995;83;21183;-79
2021/07/27 00:04:24;;;;;;;18.30;5.08;;;;;;;20.43;63.08;100447.28;1718830;83;21819;-88
2021/07/27 00:07:31;;;;;;;10.93;5.05;;;;;;;20.36;63.21;100447.91;1718860;83;21855;-82
2021/07/27 00:10:37;;;;;;;14.35;5.67;;;;;;;20.29;63.42;100454.97;1718938;83;21706;-79
2021/07/27 00:13:41;;;;;;;12.68;5.10;;;;;;;20.24;63.46;100455.38;1718845;83;21215;-78
2021/07/27 00:16:46;;;;;;;13.98;5.05;;;;;;;20.21;63.48;100458.63;1718986;83;21357;-88
2021/07/27 00:19:51;;;;;;;19.52;5.30;;;;;;;20.19;63.44;100458.02;1698024;82;21264;-88
2021/07/27 00:22:56;;;;;;;10.90;4.85;;;;;;;20.19;63.78;100451.92;1685592;85;21837;-78
2021/07/27 00:26:08;;;;;;;9.93;5.03;;;;;;;20.15;64.17;100451.54;1684508;85;21319;-79
2021/07/27 00:29:12;;;;;;;14.28;5.33;;;;;;;20.11;64.46;100446.69;1684559;85;21217;-81
2021/07/27 00:32:18;;;;;;;9.90;5.35;;;;;;;20.06;64.51;100444.63;1685482;85;21287;-78
2021/07/27 00:35:24;;;;;;;16.45;5.00;;;;;;;20.02;64.62;100444.78;1685101;85;21315;-79
2021/07/27 00:38:29;;;;;;;10.78;4.92;;;;;;;19.99;64.68;100442.47;1685572;85;21295;-88
2021/07/27 00:41:36;;;;;;;14.00;4.95;;;;;;;19.96;64.77;100440.72;1684609;85;21392;-88
2021/07/27 00:44:42;;;;;;;8.28;4.40;;;;;;;19.89;64.77;100444.42;1696790;84;21322;-86
2021/07/27 00:47:48;;;;;;;12.50;4.97;;;;;;;19.84;64.74;100445.66;1696697;84;21951;-87
2021/07/27 00:50:55;;;;;;;18.70;5.12;;;;;;;19.82;64.73;100441.44;1697717;84;21769;-88
2021/07/27 00:54:01;;;;;;;11.93;4.95;;;;;;;19.82;64.83;100445.61;1698267;84;21201;-88
2021/07/27 00:57:07;;;;;;;10.03;5.33;;;;;;;19.77;65.04;100440.76;1697651;84;21324;-80
2021/07/27 01:00:14;;;;;;;10.65;4.40;;;;;;;19.76;65.30;100440.97;1697766;84;21299;-78
2021/07/27 01:03:19;;;;;;;10.85;5.00;;;;;;;19.72;65.42;100436.99;1697909;84;21713;-78
2021/07/27 01:06:25;;;;;;;13.38;4.60;;;;;;;19.70;65.44;100435.81;1696982;84;21848;-79
2021/07/27 01:09:31;;;;;;;10.13;4.35;;;;;;;19.68;65.36;100441.31;1698106;84;21335;-87
2021/07/27 01:12:38;;;;;;;12.70;4.95;;;;;;;19.66;65.31;100435.97;1698022;84;21330;-79
2021/07/27 01:15:45;;;;;;;11.73;4.35;;;;;;;19.64;65.21;100444.54;1697539;84;21318;-87
2021/07/27 01:19:03;;;;;;;12.65;4.60;;;;;;;19.63;65.06;100448.40;1696658;83;21229;-84
2021/07/27 01:40:09;;;;;;;13.00;4.83;;;;;;;19.52;65.88;100439.41;1693268;85;21177;-78
2021/07/27 01:42:24;;;;;;;14.65;4.22;;;;;;;19.48;65.87;100436.83;1694639;84;21298;-78
2021/07/27 01:45:29;;;;;;;14.43;4.62;;;;;;;19.49;66.00;100437.67;1692176;85;21789;-86
2021/07/27 01:48:42;;;;;;;8.85;4.50;;;;;;;19.49;65.96;100441.29;1693224;85;21181;-78
2021/07/27 01:51:53;;;;;;;7.62;4.00;;;;;;;19.50;65.88;100439.36;1691994;85;21932;-87
2021/07/27 01:55:07;;;;;;;10.38;4.05;;;;;;;19.49;65.77;100441.29;1693546;85;21303;-86
2021/07/27 01:58:07;;;;;;;12.05;4.90;;;;;;;19.48;65.77;100438.21;1706060;84;21176;-78
2021/07/27 02:01:12;;;;;;;8.55;4.85;;;;;;;19.47;65.82;100439.81;1692465;85;21344;-78
2021/07/27 02:04:17;;;;;;;11.38;4.40;;;;;;;19.44;66.04;100448.07;1693304;85;21224;-78
2021/07/27 02:07:23;;;;;;;7.92;4.50;;;;;;;19.40;66.17;100442.67;1705332;84;21355;-78
2021/07/27 02:10:29;;;;;;;7.78;4.58;;;;;;;19.36;66.24;100444.20;1693068;85;21371;-88
2021/07/27 02:13:49;;;;;;;12.15;4.35;;;;;;;19.32;66.33;100447.98;1692066;85;21726;-79
2021/07/27 02:16:55;;;;;;;8.30;4.00;;;;;;;19.32;66.29;100452.67;1704950;84;21754;-78
2021/07/27 02:20:02;;;;;;;19.32;4.53;;;;;;;19.32;66.43;100451.29;1692037;85;21371;-79
2021/07/27 02:23:12;;;;;;;15.45;4.30;;;;;;;19.33;66.09;100448.82;1708478;84;21824;-88
2021/07/27 02:26:18;;;;;;;19.37;4.60;;;;;;;19.33;65.91;100444.66;1707866;84;21840;-86
2021/07/27 02:29:23;;;;;;;10.30;4.97;;;;;;;19.36;65.80;100442.28;1708428;84;21172;-87
2021/07/27 02:32:29;;;;;;;8.88;4.53;;;;;;;19.41;65.79;100454.06;1708218;84;21164;-77
2021/07/27 02:35:38;;;;;;;6.75;4.55;;;;;;;19.49;65.73;100446.84;1707577;84;21298;-87
2021/07/27 02:38:44;;;;;;;10.03;4.37;;;;;;;19.63;65.43;100444.23;1708690;84;21287;-79
2021/07/27 02:41:49;;;;;;;7.95;3.95;;;;;;;19.84;64.93;100442.88;1708224;84;21325;-86
2021/07/27 02:44:55;;;;;;;13.22;4.05;;;;;;;20.06;64.37;100444.63;1707137;84;21552;-87
2021/07/27 02:48:00;;;;;;;11.08;3.85;;;;;;;20.31;63.47;100442.22;1708191;84;21366;-79
2021/07/27 02:51:07;;;;;;;7.80;3.77;;;;;;;20.53;62.73;100447.58;1708400;84;21286;-78
2021/07/27 02:54:15;;;;;;;8.70;4.50;;;;;;;20.75;62.00;100448.38;1708457;84;21785;-79
2021/07/27 02:57:23;;;;;;;13.00;4.78;;;;;;;20.94;61.41;100443.04;1707738;84;21290;-87
2021/07/27 03:00:28;;;;;;;21.97;4.53;;;;;;;21.10;60.90;100441.45;1708009;84;21318;-79
2021/07/27 03:03:34;;;;;;;10.90;4.33;;;;;;;21.28;60.59;100447.44;1708314;84;21279;-87
2021/07/27 03:06:39;;;;;;;11.45;3.92;;;;;;;21.48;60.02;100449.85;1708203;84;21310;-87
2021/07/27 03:13:09;;;;;;;15.08;3.75;;;;;;;21.75;59.09;100465.47;1708468;84;21310;-87
2021/07/27 03:16:14;;;;;;;9.70;4.70;;;;;;;21.86;58.85;100465.97;1708289;84;21693;-87
2021/07/27 03:19:20;;;;;;;9.05;4.60;;;;;;;21.97;58.56;100459.50;1708374;84;21204;-77
2021/07/27 03:22:29;;;;;;;11.05;4.42;;;;;;;22.07;58.39;100453.31;1704799;84;21311;-87
2021/07/27 03:25:36;;;;;;;13.38;3.72;;;;;;;22.22;58.13;100459.77;1698216;84;21315;-78
2021/07/27 03:28:40;;;;;;;7.90;3.77;;;;;;;22.36;57.64;100469.50;1698061;84;21351;-86
2021/07/27 03:31:45;;;;;;;8.18;3.85;;;;;;;22.52;57.23;100469.22;1698331;84;21314;-87
2021/07/27 03:34:50;;;;;;;12.68;4.10;;;;;;;22.62;56.74;100463.27;1698119;84;21287;-79
2021/07/27 03:37:56;;;;;;;12.55;5.03;;;;;;;22.78;56.20;100462.16;1697660;84;21161;-87
2021/07/27 03:41:01;;;;;;;11.70;4.45;;;;;;;22.85;55.82;100465.06;1697535;84;21880;-78
2021/07/27 03:44:07;;;;;;;8.40;3.95;;;;;;;22.91;55.51;100471.07;1682600;84;21157;-79
2021/07/27 03:47:15;;;;;;;7.30;4.22;;;;;;;22.93;55.19;100470.80;1692062;85;21362;-86
2021/07/27 03:50:20;;;;;;;11.00;4.25;;;;;;;22.95;55.46;100465.80;1692028;85;21252;-86
2021/07/27 03:53:27;;;;;;;8.03;3.22;;;;;;;23.05;55.44;100471.54;1693238;85;21185;-86
2021/07/27 03:56:32;;;;;;;16.55;4.20;;;;;;;23.16;55.24;100469.22;1693468;85;21332;-86
2021/07/27 03:59:39;;;;;;;10.93;3.58;;;;;;;23.25;54.82;100471.59;1693326;85;21288;-85
2021/07/27 04:02:43;;;;;;;11.65;3.83;;;;;;;23.32;54.47;100469.45;1693532;85;21289;-78
2021/07/27 04:05:49;;;;;;;7.42;3.58;;;;;;;23.37;54.24;100466.73;1692914;85;21872;-84
2021/07/27 04:08:55;;;;;;;6.85;3.58;;;;;;;23.37;54.56;100473.70;1692507;85;21315;-77
2021/07/27 04:12:01;;;;;;;10.38;4.15;;;;;;;23.36;55.00;100477.60;1692057;85;21913;-79
2021/07/27 04:15:07;;;;;;;7.80;4.08;;;;;;;23.39;54.52;100477.94;1691865;85;21173;-86
2021/07/27 04:18:13;;;;;;;32.35;4.15;;;;;;;23.40;54.83;100474.04;1692025;85;21315;-78
2021/07/27 04:21:19;;;;;;;5.70;3.95;;;;;;;23.49;55.35;100477.24;1692058;85;21339;-78
2021/07/27 04:24:26;;;;;;;7.97;3.87;;;;;;;23.56;54.92;100477.88;1693310;83;21391;-78
2021/07/27 04:27:31;;;;;;;10.85;4.12;;;;;;;23.70;54.35;100481.17;1693443;85;22206;-86
2021/07/27 04:30:36;;;;;;;12.93;4.25;;;;;;;23.80;53.79;100487.44;1693054;85;21346;-77
2021/07/27 04:33:43;;;;;;;7.37;4.35;;;;;;;23.87;53.59;100490.34;1692203;85;21721;-78
2021/07/27 04:36:49;;;;;;;10.50;3.80;;;;;;;23.89;53.52;100491.47;1693263;85;21244;-84
2021/07/27 04:40:00;;;;;;;7.05;3.70;;;;;;;23.96;53.59;100487.95;1693291;85;21633;-77
2021/07/27 04:43:05;;;;;;;9.75;4.10;;;;;;;24.05;52.91;100491.97;1693485;85;21319;-80
2021/07/27 04:46:13;;;;;;;10.08;4.62;;;;;;;24.15;51.24;100494.87;1692674;85;21893;-85
2021/07/27 04:49:24;;;;;;;14.00;3.62;;;;;;;24.22;50.92;100479.30;1704970;84;21322;-78
2021/07/27 04:52:31;;;;;;;12.23;4.10;;;;;;;24.29;50.33;100487.48;1705465;84;21319;-87
2021/07/27 04:55:38;;;;;;;12.43;4.12;;;;;;;24.36;50.28;100483.91;1693006;85;21322;-86
2021/07/27 04:58:43;;;;;;;15.58;4.10;;;;;;;24.38;49.05;100477.00;1670744;85;21989;-86
2021/07/27 05:01:49;;;;;;;6.65;3.77;;;;;;;24.43;48.61;100478.45;1725552;83;21272;-78
2021/07/27 05:04:55;;;;;;;9.88;3.30;;;;;;;24.43;48.96;100477.61;1710279;83;21271;-86
2021/07/27 05:08:01;;;;;;;9.48;4.17;;;;;;;24.50;48.72;100478.22;1733024;83;21643;-79
2021/07/27 05:11:08;;;;;;;7.25;4.08;;;;;;;24.53;47.95;100481.90;1729607;83;21209;-78
2021/07/27 05:14:15;;;;;;;9.35;3.95;;;;;;;24.55;48.49;100481.06;1743296;82;21128;-79
2021/07/27 05:17:21;;;;;;;7.20;3.90;;;;;;;24.61;48.82;100477.23;1742701;82;21255;-86
2021/07/27 05:20:28;;;;;;;12.73;3.90;;;;;;;24.72;48.07;100479.00;1741658;82;21188;-84
2021/07/27 05:23:35;;;;;;;9.75;3.65;;;;;;;24.81;48.96;100475.17;1724417;82;21348;-86
2021/07/27 05:26:40;;;;;;;12.58;3.85;;;;;;;24.98;49.00;100473.61;1738670;82;21172;-86
2021/07/27 05:29:46;;;;;;;17.82;4.03;;;;;;;25.11;47.53;100473.19;1733864;82;21320;-86
2021/07/27 05:32:51;;;;;;;20.85;4.10;;;;;;;25.17;46.97;100477.73;1732621;83;21306;-79
2021/07/27 05:35:57;;;;;;;9.75;4.20;;;;;;;25.13;47.72;100475.18;1733385;83;21216;-86
2021/07/27 05:39:02;;;;;;;12.55;3.83;;;;;;;25.19;48.12;100472.70;1733238;82;21288;-86
2021/07/27 05:42:08;;;;;;;14.73;3.85;;;;;;;25.32;48.31;100472.79;1748476;81;21257;-78
2021/07/27 05:45:13;;;;;;;8.18;3.67;;;;;;;25.48;47.33;100473.72;1732490;82;21283;-86
2021/07/27 05:48:18;;;;;;;6.75;3.87;;;;;;;25.56;46.70;100469.01;1707078;84;21276;-86
2021/07/27 05:51:22;;;;;;;10.20;4.37;;;;;;;25.69;46.35;100474.13;1694339;84;21337;-86
2021/07/27 05:54:28;;;;;;;14.93;4.58;;;;;;;25.74;46.41;100475.55;1707008;84;21935;-78
2021/07/27 05:57:34;;;;;;;10.63;4.47;;;;;;;25.80;47.12;100477.00;1724612;82;21161;-79
2021/07/27 06:00:39;;;;;;;19.27;4.60;;;;;;;25.84;46.31;100472.54;1726152;82;21311;-78
2021/07/27 06:03:45;;;;;;;16.62;4.08;;;;;;;25.91;46.47;100473.11;1685274;83;21163;-78
2021/07/27 06:06:50;;;;;;;7.58;3.72;;;;;;;25.98;46.10;100474.55;1704220;84;21187;-79
2021/07/27 06:09:56;;;;;;;11.57;4.05;;;;;;;26.06;47.04;100471.77;1716974;83;21355;-87
2021/07/27 06:13:03;;;;;;;7.53;3.60;;;;;;;26.09;46.08;100480.19;1727455;82;21153;-87
2021/07/27 06:16:12;;;;;;;8.93;3.55;;;;;;;26.16;46.46;100476.02;1738923;81;21244;-80
2021/07/27 06:19:17;;;;;;;15.72;3.55;;;;;;;26.31;46.65;100483.63;1693331;84;21314;-78
2021/07/27 06:22:23;;;;;;;16.02;4.03;;;;;;;26.37;46.82;100484.48;1706636;84;21311;-78
2021/07/27 06:25:29;;;;;;;8.78;4.10;;;;;;;26.41;46.55;100488.42;1676442;84;21351;-86
2021/07/27 06:28:34;;;;;;;8.55;3.72;;;;;;;26.50;47.03;100485.39;1717576;82;21787;-82
2021/07/27 06:31:42;;;;;;;13.72;4.37;;;;;;;26.58;45.88;100488.19;1732790;82;21191;-87
2021/07/27 06:34:48;;;;;;;15.30;4.78;;;;;;;26.57;45.69;100480.33;1740843;82;21164;-86
2021/07/27 06:37:54;;;;;;;12.70;4.62;;;;;;;26.61;46.28;100482.87;1746937;82;21207;-86
2021/07/27 06:41:00;;;;;;;14.38;4.30;;;;;;;26.69;46.38;100479.52;1698264;83;21535;-86
2021/07/27 06:44:06;;;;;;;16.10;4.62;;;;;;;26.80;45.16;100479.52;1699020;83;21293;-78
2021/07/27 06:47:15;;;;;;;44.88;10.70;;;;;;;26.86;44.91;100475.02;1700295;83;21165;-77
2021/07/27 06:50:21;;;;;;;7.87;4.05;;;;;;;26.94;45.42;100474.47;1689015;83;21606;-87
2021/07/27 06:53:26;;;;;;;9.70;4.10;;;;;;;27.11;45.59;100470.58;1713524;83;21187;-87
2021/07/27 06:56:32;;;;;;;6.95;3.67;;;;;;;27.20;44.73;100464.67;1699597;83;21387;-86
2021/07/27 06:59:37;;;;;;;12.50;4.00;;;;;;;27.26;44.47;100471.38;1718493;83;21310;-86
2021/07/27 07:02:43;;;;;;;22.85;6.05;;;;;;;27.38;42.60;100471.63;1714935;82;21155;-79
2021/07/27 07:05:48;;;;;;;14.13;4.22;;;;;;;27.38;42.89;100473.03;1744965;82;21298;-86
2021/07/27 07:08:53;;;;;;;42.03;11.10;;;;;;;27.43;42.69;100473.02;1725480;83;21305;-78
2021/07/27 07:11:59;;;;;;;13.10;4.47;;;;;;;27.57;42.83;100466.24;1727158;83;21213;-78
2021/07/27 07:15:05;;;;;;;23.32;4.55;;;;;;;27.73;44.30;100469.33;1734641;82;21865;-78
2021/07/27 07:18:10;;;;;;;8.23;3.90;;;;;;;27.94;43.03;100479.91;1732459;82;21149;-86
2021/07/27 07:21:15;;;;;;;7.80;3.80;;;;;;;28.12;43.91;100474.21;1716941;82;21323;-78
2021/07/27 07:24:20;;;;;;;14.65;4.55;;;;;;;28.32;42.62;100469.03;1707091;83;21284;-78
2021/07/27 07:27:26;;;;;;;17.87;3.90;;;;;;;28.47;43.05;100481.08;1713667;82;21189;-78
2021/07/27 07:30:31;;;;;;;13.00;4.30;;;;;;;28.61;42.89;100474.23;1698863;82;21875;-78
2021/07/27 07:33:37;;;;;;;15.72;4.03;;;;;;;28.64;41.63;100473.63;1705854;83;21268;-79
2021/07/27 07:36:43;;;;;;;12.55;4.00;;;;;;;28.61;41.51;100473.39;1704760;83;21287;-78
2021/07/27 07:39:48;;;;;;;7.75;3.50;;;;;;;28.59;42.39;100477.89;1723591;83;21355;-78
2021/07/27 07:42:54;;;;;;;13.48;3.90;;;;;;;28.66;41.81;100472.78;1733440;82;21265;-78
2021/07/27 07:45:59;;;;;;;9.78;3.70;;;;;;;28.66;41.81;100472.78;1722456;82;21231;-78
2021/07/27 07:49:09;;;;;;;10.98;3.10;;;;;;;28.69;40.60;100478.38;1694106;83;21267;-78
2021/07/27 07:52:14;;;;;;;8.50;3.33;;;;;;;28.66;39.83;100470.54;1705737;84;21947;-86
2021/07/27 07:55:21;;;;;;;15.38;3.80;;;;;;;28.73;39.44;100478.07;1712254;82;21183;-77
2021/07/27 07:58:27;;;;;;;14.15;3.85;;;;;;;28.69;40.78;100476.41;1687567;83;21259;-77
2021/07/27 08:01:31;;;;;;;12.05;3.17;;;;;;;28.71;39.81;100471.34;1705838;83;21172;-78
2021/07/27 08:04:37;;;;;;;11.50;3.70;;;;;;;28.78;40.66;100475.22;1704335;84;21832;-78
2021/07/27 08:07:43;;;;;;;20.72;4.42;;;;;;;28.82;38.47;100465.05;1712277;84;21302;-86
2021/07/27 08:10:50;;;;;;;9.40;3.72;;;;;;;28.95;38.61;100474.84;1690834;83;21362;-78
2021/07/27 08:13:58;;;;;;;22.80;3.92;;;;;;;29.07;38.97;100471.63;1729537;83;21287;-79
2021/07/27 08:17:04;;;;;;;13.88;4.22;;;;;;;29.13;38.39;100476.93;1734383;82;21186;-86
2021/07/27 08:20:09;;;;;;;37.15;9.60;;;;;;;29.16;39.64;100467.03;1724181;81;21634;-87
2021/07/27 08:23:15;;;;;;;12.53;4.22;;;;;;;29.19;40.85;100467.86;1735628;82;21249;-78
2021/07/27 08:26:21;;;;;;;11.55;3.33;;;;;;;29.18;40.23;100465.61;1730625;82;21201;-79
2021/07/27 08:29:27;;;;;;;14.03;3.58;;;;;;;29.23;40.89;100459.92;1737464;81;21263;-79
2021/07/27 08:32:33;;;;;;;16.27;3.40;;;;;;;29.28;40.09;100466.91;1736809;82;21785;-82
2021/07/27 08:35:38;;;;;;;15.50;3.45;;;;;;;29.23;39.88;100463.31;1737795;82;21267;-87
2021/07/27 08:38:44;;;;;;;10.35;3.50;;;;;;;29.17;40.36;100473.80;1711914;84;21278;-87
2021/07/27 08:41:50;;;;;;;9.08;3.20;;;;;;;29.22;40.85;100463.89;1712459;84;21203;-79
2021/07/27 08:44:56;;;;;;;5.87;2.77;;;;;;;29.32;40.99;100473.38;1699873;82;21270;-79
2021/07/27 08:48:01;;;;;;;9.40;3.60;;;;;;;29.33;40.24;100466.59;1713323;83;21132;-87
2021/07/27 08:51:08;;;;;;;11.18;3.22;;;;;;;29.35;39.83;100468.53;1710282;83;21278;-80
2021/07/27 08:54:15;;;;;;;8.65;3.02;;;;;;;29.42;39.79;100470.45;1707742;84;21280;-79
2021/07/27 08:57:22;;;;;;;13.55;3.95;;;;;;;29.58;39.74;100462.11;1713396;82;21307;-87
2021/07/27 09:00:28;;;;;;;10.60;3.40;;;;;;;29.67;39.79;100466.52;1706012;82;21272;-78
2021/07/27 09:03:33;;;;;;;21.12;3.08;;;;;;;29.70;38.74;100465.94;1729372;82;21187;-87
2021/07/27 09:06:39;;;;;;;7.67;3.20;;;;;;;29.70;38.74;100465.94;1724413;82;21749;-78
2021/07/27 09:09:44;;;;;;;17.07;3.08;;;;;;;29.75;38.55;100463.89;1715430;82;21150;-83
2021/07/27 09:13:05;;;;;;;7.12;2.52;;;;;;;29.78;39.13;100454.84;1707298;82;21271;-87
2021/07/27 09:16:11;;;;;;;6.17;2.72;;;;;;;29.83;37.67;100455.89;1712016;82;21790;-79
2021/07/27 09:19:16;;;;;;;7.17;2.70;;;;;;;29.86;37.92;100465.16;1701406;82;21305;-87
2021/07/27 09:22:22;;;;;;;11.30;3.10;;;;;;;29.88;37.51;100462.87;1709840;82;21279;-79
2021/07/27 09:25:29;;;;;;;12.93;3.37;;;;;;;29.92;37.78;100454.91;1719388;82;21288;-87
2021/07/27 09:28:35;;;;;;;17.57;3.52;;;;;;;29.99;38.84;100454.56;1706864;82;21248;-87
2021/07/27 09:31:40;;;;;;;20.10;6.12;;;;;;;30.01;38.98;100454.52;1712210;82;21287;-87
2021/07/27 09:34:47;;;;;;;39.30;7.25;;;;;;;30.08;38.29;100455.57;1714931;82;21279;-78
2021/07/27 09:37:53;;;;;;;41.23;10.25;;;;;;;30.11;38.46;100453.53;1711621;82;21259;-87
2021/07/27 09:41:08;;;;;;;23.55;6.05;;;;;;;30.14;36.69;100458.61;1673945;82;21815;-79
2021/07/27 09:44:15;;;;;;;23.62;5.53;;;;;;;30.14;36.69;100458.61;1708240;82;21343;-80
2021/07/27 09:47:20;;;;;;;45.48;9.18;;;;;;;30.08;34.59;100454.16;1704605;82;21275;-79
2021/07/27 09:50:26;;;;;;;60.85;11.97;;;;;;;30.08;34.59;100454.16;1702848;82;21335;-89
2021/07/27 09:53:38;;;;;;;50.98;12.07;;;;;;;30.09;36.23;100454.42;1721931;82;21268;-83
2021/07/27 09:56:43;;;;;;;71.22;15.80;;;;;;;30.05;34.39;100453.34;1710152;82;21316;-80
2021/07/27 09:59:48;;;;;;;49.98;11.63;;;;;;;30.06;34.54;100460.66;1714628;82;21868;-87
2021/07/27 10:02:55;;;;;;;10.15;3.42;;;;;;;30.07;35.21;100448.26;1712683;82;21304;-78
2021/07/27 10:06:05;;;;;;;8.73;3.17;;;;;;;30.09;34.78;100447.37;1719193;82;21319;-78
2021/07/27 10:09:11;;;;;;;7.55;2.72;;;;;;;30.12;34.98;100455.81;1733867;82;21830;-85
2021/07/27 10:12:19;;;;;;;11.53;2.12;;;;;;;30.12;35.29;100455.23;1712057;82;21334;-78
2021/07/27 10:15:25;;;;;;;5.60;2.62;;;;;;;30.11;35.84;100455.52;1692374;85;21319;-86
2021/07/27 10:18:40;;;;;;;10.75;2.55;;;;;;;30.13;35.73;100449.89;1708198;84;21331;-86
2021/07/27 10:21:44;;;;;;;8.90;2.80;;;;;;;30.14;35.30;100448.74;1695793;84;21322;-78
2021/07/27 10:24:52;;;;;;;12.68;2.62;;;;;;;30.15;34.80;100446.75;1724046;81;21258;-86
2021/07/27 10:28:01;;;;;;;9.25;2.30;;;;;;;30.20;34.93;100442.45;1734843;82;21177;-77
2021/07/27 10:31:13;;;;;;;12.82;2.67;;;;;;;30.25;35.01;100442.38;1711767;82;21187;-87
2021/07/27 10:34:19;;;;;;;21.73;3.58;;;;;;;30.29;33.57;100438.64;1734276;82;21793;-86
2021/07/27 10:37:26;;;;;;;6.37;2.33;;;;;;;30.32;35.52;100443.42;1735374;82;21268;-87
2021/07/27 10:40:36;;;;;;;15.20;2.60;;;;;;;30.36;34.20;100434.63;1681907;84;21311;-87
2021/07/27 10:43:42;;;;;;;8.60;2.40;;;;;;;30.41;34.15;100427.48;1705105;83;21740;-78
2021/07/27 10:46:52;;;;;;;9.75;2.50;;;;;;;30.48;35.10;100422.28;1709375;83;21189;-77
2021/07/27 10:50:13;;;;;;;8.78;2.87;;;;;;;30.52;34.74;100427.58;1694198;83;21327;-87
2021/07/27 10:53:22;;;;;;;8.23;2.47;;;;;;;30.51;34.05;100415.45;1708599;83;21190;-85
2021/07/27 10:56:25;;;;;;;19.40;4.10;;;;;;;30.54;35.49;100419.66;1701663;83;21295;-86
2021/07/27 10:59:35;;;;;;;19.00;6.25;;;;;;;30.59;34.94;100415.34;1684854;85;21296;-86
2021/07/27 11:02:41;;;;;;;12.40;2.45;;;;;;;30.62;34.44;100420.35;1699092;83;21336;-77
2021/07/27 11:05:46;;;;;;;7.28;2.27;;;;;;;30.69;33.85;100411.51;1696232;84;21334;-86
2021/07/27 11:08:52;;;;;;;5.20;1.98;;;;;;;30.69;33.85;100411.51;1714124;82;21345;-88
2021/07/27 11:11:58;;;;;;;9.00;2.27;;;;;;;30.71;34.18;100419.11;1712681;83;21208;-87
2021/07/27 11:15:23;;;;;;;4.35;2.17;;;;;;;30.74;34.07;100409.47;1708533;82;21885;-88
2021/07/27 11:18:29;;;;;;;6.45;2.20;;;;;;;30.80;33.90;100411.04;1720624;82;21286;-88
2021/07/27 11:21:34;;;;;;;5.62;2.30;;;;;;;30.80;33.48;100411.04;1702661;84;21402;-77
2021/07/27 11:24:40;;;;;;;3.47;2.22;;;;;;;30.79;34.88;100412.20;1711641;83;21209;-77
2021/07/27 11:27:47;;;;;;;6.58;1.92;;;;;;;30.77;34.19;100406.58;1714176;83;21335;-87
2021/07/27 11:30:52;;;;;;;5.62;2.45;;;;;;;30.83;35.07;100419.48;1717871;82;21352;-77
2021/07/27 11:33:59;;;;;;;7.17;2.37;;;;;;;30.88;34.90;100410.09;1696163;84;21190;-87
2021/07/27 11:37:04;;;;;;;8.50;2.55;;;;;;;30.94;34.36;100414.48;1761540;81;21158;-86
2021/07/27 11:40:12;;;;;;;7.62;2.60;;;;;;;30.97;33.97;100406.81;1715773;82;21814;-77
2021/07/27 11:43:18;;;;;;;7.17;2.50;;;;;;;30.96;33.20;100403.16;1751242;81;21244;-86
2021/07/27 11:46:25;;;;;;;7.80;2.40;;;;;;;30.97;33.89;100409.06;1753835;81;21183;-77
2021/07/27 11:49:34;;;;;;;14.68;2.60;;;;;;;31.03;33.76;100405.56;1750613;81;21803;-77
2021/07/27 11:52:40;;;;;;;9.03;2.30;;;;;;;31.04;34.19;100407.23;1743917;81;21269;-87
2021/07/27 11:55:47;;;;;;;8.58;2.20;;;;;;;31.03;32.30;100394.27;1770017;81;21296;-88
2021/07/27 11:58:58;;;;;;;5.50;2.25;;;;;;;31.05;33.67;100404.66;1771165;81;21240;-86
2021/07/27 12:02:04;;;;;;;5.12;2.20;;;;;;;31.04;33.01;100396.77;1739597;82;21331;-88
2021/07/27 12:05:11;;;;;;;5.78;2.20;;;;;;;31.01;32.25;100407.88;1744161;81;21406;-89
2021/07/27 12:08:16;;;;;;;6.08;2.02;;;;;;;30.96;31.75;100403.16;1748339;81;21736;-88
2021/07/27 12:11:21;;;;;;;4.53;2.15;;;;;;;30.93;31.80;100405.75;1749961;81;21754;-77
2021/07/27 12:14:27;;;;;;;6.53;2.10;;;;;;;30.96;32.92;100397.51;1758442;81;21209;-88
2021/07/27 12:17:32;;;;;;;9.88;2.42;;;;;;;31.01;33.47;100395.16;1732819;81;21172;-76
2021/07/27 12:20:37;;;;;;;8.98;2.60;;;;;;;31.08;33.60;100404.62;1748584;81;21666;-76
2021/07/27 12:23:43;;;;;;;8.35;2.50;;;;;;;31.05;32.82;100397.60;1753618;81;21287;-88
2021/07/27 12:26:48;;;;;;;4.05;1.85;;;;;;;31.03;31.15;100384.38;1764009;81;21781;-78
2021/07/27 12:29:53;;;;;;;9.95;2.60;;;;;;;31.05;31.04;100387.72;1763866;81;21268;-90
2021/07/27 12:32:58;;;;;;;10.05;2.05;;;;;;;31.10;30.26;100389.06;1728442;82;21924;-77
2021/07/27 12:36:08;;;;;;;5.75;2.50;;;;;;;31.15;30.55;100390.38;1726543;82;21708;-89
2021/07/27 12:39:13;;;;;;;;;;;;;;;31.16;29.87;100382.16;1745332;81;22383;-89
2021/07/27 12:42:21;;;;;;;4.53;2.02;;;;;;;31.17;30.77;100396.54;1718050;82;20249;-78
2021/07/27 12:45:27;;;;;;;5.92;2.05;;;;;;;31.15;29.76;100388.09;1770678;81;21169;-77
2021/07/27 12:48:33;;;;;;;6.00;2.72;;;;;;;31.11;30.15;100388.48;1770786;81;21810;-88
2021/07/27 12:51:39;;;;;;;7.35;2.20;;;;;;;31.03;29.33;100382.39;1744114;80;21143;-88
2021/07/27 12:54:46;;;;;;;4.15;1.95;;;;;;;31.05;29.01;100378.70;1740262;82;21289;-77
2021/07/27 12:57:52;;;;;;;7.10;2.00;;;;;;;31.10;28.81;100378.31;1755598;81;21264;-76
2021/07/27 13:00:57;;;;;;;7.80;1.98;;;;;;;31.08;27.81;100374.39;1770482;81;21896;-87
2021/07/27 13:04:03;;;;;;;3.40;1.95;;;;;;;31.10;28.30;100368.42;1740760;82;21323;-88
2021/07/27 13:07:11;;;;;;;7.53;2.05;;;;;;;31.14;27.18;100373.72;1742539;81;21279;-75
2021/07/27 13:10:16;;;;;;;8.48;2.47;;;;;;;31.18;28.14;100369.95;1725951;82;21168;-89
2021/07/27 13:13:22;;;;;;;4.17;2.27;;;;;;;31.16;27.24;100360.97;1695614;84;21283;-88
2021/07/27 13:16:27;;;;;;;5.03;2.72;;;;;;;31.14;27.32;100356.19;1711843;83;21229;-89
2021/07/27 13:19:33;;;;;;;10.63;2.77;;;;;;;31.17;29.26;100356.98;1711626;83;21279;-89
2021/07/27 13:22:38;;;;;;;5.53;2.17;;;;;;;31.20;28.57;100348.47;1734572;83;21185;-88
2021/07/27 13:25:44;;;;;;;7.70;2.37;;;;;;;31.19;30.50;100349.60;1733616;83;21900;-87
2021/07/27 13:28:50;;;;;;;15.43;2.45;;;;;;;31.17;30.90;100349.92;1733973;83;21722;-76
2021/07/27 13:31:56;;;;;;;9.00;3.00;;;;;;;31.12;30.06;100346.38;1731648;83;21284;-88
2021/07/27 13:35:01;;;;;;;7.78;2.30;;;;;;;31.04;30.36;100347.92;1731352;82;21319;-84
2021/07/27 13:38:08;;;;;;;10.50;2.70;;;;;;;31.01;30.53;100351.39;1708521;83;21257;-89
2021/07/27 13:41:13;;;;;;;5.30;2.22;;;;;;;31.00;30.28;100345.45;1707454;84;21676;-89
2021/07/27 13:44:19;;;;;;;6.30;2.20;;;;;;;31.02;29.20;100340.34;1708163;84;21209;-88
2021/07/27 13:47:25;;;;;;;12.18;2.58;;;;;;;31.00;29.15;100339.23;1707176;84;21311;-88
2021/07/27 13:50:31;;;;;;;3.30;2.60;;;;;;;30.97;28.80;100339.88;1706919;84;21841;-87
2021/07/27 13:53:37;;;;;;;9.60;2.50;;;;;;;30.98;30.20;100337.88;1708121;84;21295;-88
2021/07/27 13:56:42;;;;;;;5.15;2.72;;;;;;;30.95;28.89;100325.78;1707095;84;21316;-77
2021/07/27 13:59:49;;;;;;;11.20;2.27;;;;;;;30.93;29.09;100332.33;1686677;84;21173;-88
2021/07/27 14:02:56;;;;;;;6.12;2.37;;;;;;;30.90;30.36;100330.95;1708203;84;21288;-89
2021/07/27 14:06:01;;;;;;;3.65;2.50;;;;;;;30.89;30.99;100335.52;1706914;84;21284;-78
2021/07/27 14:09:06;;;;;;;8.68;2.40;;;;;;;30.82;30.02;100336.48;1707988;84;21817;-78
2021/07/27 14:12:11;;;;;;;7.10;2.37;;;;;;;30.75;30.35;100322.20;1708298;84;21369;-87
2021/07/27 14:15:16;;;;;;;7.25;2.72;;;;;;;30.71;29.86;100333.84;1707929;84;21857;-87
2021/07/27 14:18:22;;;;;;;5.80;2.65;;;;;;;30.68;30.15;100330.80;1707070;84;21311;-88
2021/07/27 14:21:29;;;;;;;6.78;2.80;;;;;;;30.67;30.31;100329.09;1706863;84;21339;-77
2021/07/27 14:24:34;;;;;;;4.25;2.30;;;;;;;30.66;30.28;100331.09;1708119;84;21276;-77
2021/07/27 14:27:41;;;;;;;9.45;2.50;;;;;;;30.64;30.47;100326.92;1706833;84;21300;-88
2021/07/27 14:30:47;;;;;;;9.45;2.90;;;;;;;30.63;31.01;100328.91;1707642;84;21860;-89
2021/07/27 14:33:55;;;;;;;7.67;2.75;;;;;;;30.62;31.25;100332.85;1708765;82;21760;-88
2021/07/27 14:37:00;;;;;;;4.00;2.40;;;;;;;30.57;31.32;100332.11;1706881;84;21308;-89
2021/07/27 14:40:06;;;;;;;8.38;2.67;;;;;;;30.52;31.18;100335.86;1706915;83;21225;-89
2021/07/27 14:43:11;;;;;;;7.65;3.15;;;;;;;30.49;30.59;100332.27;1708226;84;21165;-89